Time;durP1;ratioP1;P1;durP2;ratioP2;P2;SDS_P1;SDS_P2;PMS_P1;PMS_P2;Temp;Humidity;BMP_temperature;BMP_pressure;BME280_temperature;BME280_humidity;BME280_pressure;Samples;Min_cycle;Max_cycle;Signal;HPM_P1;HPM_P2
2021/06/12 00:00:52;;;;;;;0.40;0.40;;;16.90;99.90;;;;;;4992629;28;20410;-72
2021/06/12 00:03:18;;;;;;;0.40;0.30;;;16.90;99.90;;;;;;4991687;28;20421;-72
2021/06/12 00:05:43;;;;;;;0.40;0.20;;;16.80;99.90;;;;;;4992625;28;20474;-71
2021/06/12 00:08:10;;;;;;;0.40;0.30;;;16.70;99.90;;;;;;4991343;28;20383;-71
2021/06/12 00:10:37;;;;;;;0.40;0.20;;;16.70;99.90;;;;;;4992306;28;20480;-71
2021/06/12 00:13:04;;;;;;;0.40;0.30;;;16.60;99.90;;;;;;4991728;28;20386;-72
2021/06/12 00:15:31;;;;;;;0.40;0.30;;;16.60;99.90;;;;;;4992529;28;20403;-71
2021/06/12 00:17:57;;;;;;;0.40;0.30;;;16.60;99.90;;;;;;4990760;28;20395;-71
2021/06/12 00:20:26;;;;;;;0.40;0.20;;;16.70;99.90;;;;;;4991332;28;20402;-72
2021/06/12 00:22:52;;;;;;;0.40;0.20;;;16.70;99.90;;;;;;4991997;28;20397;-71
2021/06/12 00:25:21;;;;;;;0.40;0.25;;;16.80;99.90;;;;;;4991560;28;20445;-72
2021/06/12 00:27:48;;;;;;;0.40;0.30;;;16.90;99.90;;;;;;4991412;28;20393;-71
2021/06/12 00:30:15;;;;;;;0.40;0.20;;;16.90;99.90;;;;;;4990941;28;20485;-71
2021/06/12 00:32:40;;;;;;;0.40;0.20;;;16.90;99.90;;;;;;4992187;28;20405;-71
2021/06/12 00:35:08;;;;;;;0.40;0.40;;;16.80;99.90;;;;;;4991373;28;20387;-71
2021/06/12 00:37:34;;;;;;;0.40;0.30;;;16.70;99.90;;;;;;4991450;28;20461;-71
2021/06/12 00:40:00;;;;;;;0.40;0.20;;;16.60;99.90;;;;;;4991913;28;20375;-71
2021/06/12 00:42:26;;;;;;;0.40;0.30;;;16.60;99.90;;;;;;4991206;28;20743;-71
2021/06/12 00:44:52;;;;;;;0.40;0.30;;;16.50;99.90;;;;;;4991282;28;20399;-71
2021/06/12 00:47:17;;;;;;;0.40;0.30;;;16.60;99.90;;;;;;4991096;28;20390;-71
2021/06/12 00:49:43;;;;;;;0.40;0.30;;;16.60;99.90;;;;;;4991571;28;20383;-71
2021/06/12 00:52:09;;;;;;;0.40;0.30;;;16.50;99.90;;;;;;4990804;28;20732;-71
2021/06/12 00:54:36;;;;;;;0.40;0.30;;;16.50;99.90;;;;;;4973839;28;20398;-71
2021/06/12 00:57:04;;;;;;;0.40;0.20;;;16.40;99.90;;;;;;4991610;28;20816;-71
2021/06/12 00:59:31;;;;;;;0.40;0.20;;;16.50;99.90;;;;;;4991130;28;20381;-71
2021/06/12 01:01:57;;;;;;;0.40;0.20;;;16.50;99.90;;;;;;4991491;28;20460;-71
2021/06/12 01:04:23;;;;;;;0.40;0.20;;;16.30;99.90;;;;;;4990898;28;20378;-71
2021/06/12 01:06:51;;;;;;;0.40;0.30;;;16.40;99.90;;;;;;4991510;28;20383;-71
2021/06/12 01:09:22;;;;;;;0.40;0.20;;;16.40;99.90;;;;;;4990826;28;20382;-71
2021/06/12 01:12:18;;;;;;;0.40;0.20;;;16.40;99.90;;;;;;4991492;28;20433;-71
2021/06/12 01:14:48;;;;;;;0.40;0.20;;;16.30;99.90;;;;;;4990931;28;20414;-70
2021/06/12 01:17:35;;;;;;;0.40;0.30;;;16.40;99.90;;;;;;4990540;28;20397;-71
2021/06/12 01:20:01;;;;;;;0.40;0.20;;;16.20;99.90;;;;;;4990939;28;20383;-70
2021/06/12 01:22:54;;;;;;;0.40;0.30;;;16.20;99.90;;;;;;4990578;28;20745;-71
2021/06/12 01:25:50;;;;;;;0.40;0.22;;;16.10;99.90;;;;;;4990342;28;20410;-71
2021/06/12 01:28:53;;;;;;;0.40;0.20;;;16.20;99.90;;;;;;4990560;28;20452;-71
2021/06/12 01:31:21;;;;;;;0.40;0.30;;;16.20;99.90;;;;;;4990766;28;20514;-70
2021/06/12 01:33:48;;;;;;;0.40;0.30;;;16.20;99.90;;;;;;4991278;28;20474;-71
2021/06/12 01:36:14;;;;;;;0.40;0.20;;;16.20;99.90;;;;;;4990750;28;20395;-71
2021/06/12 01:38:46;;;;;;;0.40;0.30;;;16.20;99.90;;;;;;4989815;28;20449;-71
2021/06/12 01:41:16;;;;;;;0.40;0.20;;;16.10;99.90;;;;;;4994749;28;20461;-71
2021/06/12 01:43:43;;;;;;;0.40;0.20;;;16.10;99.90;;;;;;4995301;28;20676;-71
2021/06/12 01:46:12;;;;;;;0.40;0.20;;;16.10;99.90;;;;;;4994446;28;20386;-71
2021/06/12 01:48:43;;;;;;;0.40;0.20;;;16.10;99.90;;;;;;4994911;28;20448;-71
2021/06/12 01:51:10;;;;;;;0.40;0.30;;;16.20;99.90;;;;;;4993211;28;20480;-71
2021/06/12 01:53:38;;;;;;;0.40;0.30;;;16.10;99.90;;;;;;4994917;28;20775;-71
2021/06/12 01:56:06;;;;;;;0.40;0.20;;;16.10;99.90;;;;;;4994953;28;20382;-70
2021/06/12 01:58:34;;;;;;;0.40;0.30;;;16.10;99.90;;;;;;4994199;28;20414;-71
2021/06/12 02:01:01;;;;;;;0.40;0.20;;;15.90;99.90;;;;;;4994729;28;20405;-71
2021/06/12 02:03:28;;;;;;;0.40;0.30;;;16.00;99.90;;;;;;4994105;28;20882;-71
2021/06/12 02:05:54;;;;;;;0.40;0.20;;;16.10;99.90;;;;;;4994700;28;20379;-71
2021/06/12 02:08:21;;;;;;;0.40;0.20;;;16.00;99.90;;;;;;4993689;28;20827;-71
2021/06/12 02:10:49;;;;;;;0.40;0.20;;;16.10;99.90;;;;;;4994232;28;20508;-71
2021/06/12 02:13:20;;;;;;;0.40;0.30;;;16.00;99.90;;;;;;4993677;28;20397;-71
2021/06/12 02:15:52;;;;;;;0.40;0.20;;;16.10;99.90;;;;;;4994448;28;20410;-71
2021/06/12 02:18:18;;;;;;;0.40;0.20;;;16.10;99.90;;;;;;4993952;28;20493;-71
2021/06/12 02:20:45;;;;;;;0.40;0.20;;;16.10;99.90;;;;;;4994120;28;20723;-70
2021/06/12 02:23:11;;;;;;;0.40;0.30;;;16.10;99.90;;;;;;4993757;28;20394;-71
2021/06/12 02:25:37;;;;;;;0.40;0.20;;;16.20;99.90;;;;;;4994600;28;20391;-71
2021/06/12 02:28:10;;;;;;;0.40;0.20;;;16.20;99.90;;;;;;4994235;28;20382;-70
2021/06/12 02:30:42;;;;;;;0.40;0.30;;;16.10;99.90;;;;;;4994175;28;20854;-71
2021/06/12 02:33:13;;;;;;;0.40;0.20;;;16.10;99.90;;;;;;4994285;28;20852;-71
2021/06/12 02:35:39;;;;;;;0.40;0.30;;;16.00;99.90;;;;;;4993869;28;20378;-71
2021/06/12 02:38:04;;;;;;;0.57;0.57;;;16.10;99.90;;;;;;4994128;28;20385;-71
2021/06/12 02:40:31;;;;;;;0.40;0.20;;;16.10;99.90;;;;;;4993419;28;20668;-71
2021/06/12 02:42:56;;;;;;;0.40;0.20;;;16.00;99.90;;;;;;4993896;28;20803;-71
2021/06/12 02:45:24;;;;;;;0.40;0.30;;;15.90;99.90;;;;;;4993321;28;20481;-71
2021/06/12 02:47:53;;;;;;;0.40;0.20;;;16.00;99.90;;;;;;4993877;28;20387;-71
2021/06/12 02:50:24;;;;;;;0.40;0.20;;;16.10;99.90;;;;;;4993076;28;20407;-71
2021/06/12 02:52:53;;;;;;;0.40;0.30;;;16.00;99.90;;;;;;4993180;28;20406;-71
2021/06/12 02:55:19;;;;;;;0.40;0.30;;;16.00;99.90;;;;;;4993172;28;20434;-71
2021/06/12 02:57:47;;;;;;;0.40;0.30;;;15.90;99.90;;;;;;4993750;28;20399;-71
2021/06/12 03:00:16;;;;;;;0.40;0.30;;;15.90;99.90;;;;;;4992957;28;20391;-71
2021/06/12 03:02:44;;;;;;;0.40;0.20;;;15.80;99.90;;;;;;4993958;28;20393;-71
2021/06/12 03:05:15;;;;;;;0.50;0.50;;;16.00;99.90;;;;;;4993530;28;20413;-70
2021/06/12 03:07:45;;;;;;;0.40;0.22;;;16.00;99.90;;;;;;4993743;28;20806;-71
2021/06/12 03:10:11;;;;;;;0.40;0.30;;;15.90;99.90;;;;;;4993102;28;20394;-71
2021/06/12 03:12:38;;;;;;;0.40;0.20;;;15.90;99.90;;;;;;4992635;28;20512;-71
2021/06/12 03:15:05;;;;;;;0.40;0.20;;;15.80;99.90;;;;;;4993332;28;20497;-70
2021/06/12 03:17:30;;;;;;;0.40;0.20;;;15.70;99.90;;;;;;4992738;28;20394;-71
2021/06/12 03:19:57;;;;;;;0.40;0.30;;;15.80;99.90;;;;;;4993316;28;20421;-71
2021/06/12 03:22:24;;;;;;;0.40;0.28;;;15.80;99.90;;;;;;4992385;28;20791;-71
2021/06/12 03:24:50;;;;;;;0.40;0.30;;;15.60;99.90;;;;;;4993275;28;20465;-72
2021/06/12 03:27:16;;;;;;;0.40;0.20;;;15.70;99.90;;;;;;4992793;28;20473;-73
2021/06/12 03:29:43;;;;;;;0.40;0.20;;;15.70;99.90;;;;;;4993195;28;20900;-72
2021/06/12 03:32:09;;;;;;;0.40;0.30;;;15.70;99.90;;;;;;4993129;28;20407;-72
2021/06/12 03:34:35;;;;;;;0.40;0.20;;;15.70;99.90;;;;;;4992412;28;20390;-72
2021/06/12 03:37:02;;;;;;;0.40;0.30;;;15.60;99.90;;;;;;4993066;28;20859;-72
2021/06/12 03:39:28;;;;;;;0.40;0.30;;;15.50;99.90;;;;;;4992407;28;20744;-72
2021/06/12 03:41:54;;;;;;;0.40;0.30;;;15.70;99.90;;;;;;4992915;28;20386;-71
2021/06/12 03:44:22;;;;;;;0.40;0.20;;;15.70;99.90;;;;;;4992443;28;20758;-72
2021/06/12 03:46:50;;;;;;;0.40;0.20;;;15.60;99.90;;;;;;4992482;28;20825;-72
2021/06/12 03:49:17;;;;;;;0.40;0.30;;;15.70;99.90;;;;;;4992353;28;20394;-72
2021/06/12 03:51:43;;;;;;;0.40;0.30;;;15.80;99.90;;;;;;4992346;28;20782;-72
2021/06/12 03:54:09;;;;;;;0.40;0.20;;;15.80;99.90;;;;;;4992451;28;20386;-71
2021/06/12 03:56:38;;;;;;;0.40;0.20;;;15.80;99.90;;;;;;4991951;28;20785;-72
2021/06/12 03:59:05;;;;;;;0.40;0.30;;;15.70;99.90;;;;;;4992357;28;20393;-71
2021/06/12 04:01:31;;;;;;;0.40;0.30;;;15.80;99.90;;;;;;4992047;28;20490;-72
2021/06/12 04:03:57;;;;;;;0.40;0.30;;;15.90;99.90;;;;;;4992883;28;20470;-72
2021/06/12 04:06:22;;;;;;;0.40;0.20;;;15.90;99.90;;;;;;4991986;28;20397;-72
2021/06/12 04:08:49;;;;;;;0.40;0.30;;;15.90;99.90;;;;;;4992931;28;20470;-71
2021/06/12 04:11:16;;;;;;;0.40;0.20;;;15.90;99.90;;;;;;4992582;28;20513;-71
2021/06/12 04:13:42;;;;;;;0.40;0.20;;;16.00;99.90;;;;;;4992653;28;20426;-72
2021/06/12 04:16:08;;;;;;;0.40;0.20;;;16.00;99.90;;;;;;4992608;28;20378;-72
2021/06/12 04:18:34;;;;;;;0.40;0.20;;;16.00;99.90;;;;;;4992043;28;20731;-72
2021/06/12 04:21:00;;;;;;;0.40;0.20;;;15.90;99.90;;;;;;4992466;28;20395;-72
2021/06/12 04:23:26;;;;;;;0.50;0.40;;;15.80;99.90;;;;;;4991884;28;20422;-72
2021/06/12 04:25:52;;;;;;;0.40;0.20;;;15.70;99.90;;;;;;4992428;28;20425;-72
2021/06/12 04:28:18;;;;;;;0.40;0.20;;;15.80;99.90;;;;;;4991896;28;20816;-73
2021/06/12 04:30:43;;;;;;;0.40;0.30;;;15.80;99.90;;;;;;4992181;28;20442;-71
2021/06/12 04:33:09;;;;;;;0.40;0.20;;;15.80;99.90;;;;;;4992112;28;20383;-71
2021/06/12 04:35:35;;;;;;;0.40;0.20;;;16.00;99.90;;;;;;4991445;28;20477;-71
2021/06/12 04:38:01;;;;;;;0.40;0.30;;;15.90;99.90;;;;;;4992232;28;20391;-71
2021/06/12 04:40:32;;;;;;;0.40;0.30;;;15.90;99.90;;;;;;4991592;28;20394;-70
2021/06/12 04:42:58;;;;;;;0.40;0.30;;;15.90;99.90;;;;;;4992230;28;20410;-71
2021/06/12 04:45:24;;;;;;;0.40;0.30;;;16.00;99.90;;;;;;4991264;28;20862;-71
2021/06/12 04:47:50;;;;;;;0.40;0.30;;;16.00;99.90;;;;;;4991826;28;20391;-71
2021/06/12 04:50:16;;;;;;;0.40;0.20;;;16.10;99.90;;;;;;4992005;28;20390;-72
2021/06/12 04:52:42;;;;;;;0.40;0.20;;;16.20;99.90;;;;;;4991494;28;20397;-70
2021/06/12 04:55:10;;;;;;;0.40;0.30;;;16.10;99.90;;;;;;4992092;28;20838;-70
2021/06/12 04:57:37;;;;;;;0.40;0.20;;;16.20;99.90;;;;;;4991339;28;20452;-70
2021/06/12 05:00:10;;;;;;;0.40;0.30;;;16.30;99.90;;;;;;4991924;28;20394;-71
2021/06/12 05:02:38;;;;;;;0.40;0.30;;;16.40;99.90;;;;;;4991243;28;20386;-71
2021/06/12 05:05:04;;;;;;;0.40;0.22;;;16.40;99.90;;;;;;4991789;28;20529;-71
2021/06/12 05:07:30;;;;;;;0.40;0.20;;;16.50;99.90;;;;;;4990983;28;20481;-71
2021/06/12 05:09:55;;;;;;;0.40;0.20;;;16.40;99.90;;;;;;5007221;28;20398;-72
2021/06/12 05:12:21;;;;;;;0.40;0.20;;;16.50;99.90;;;;;;4991142;28;20465;-71
2021/06/12 05:14:49;;;;;;;0.40;0.20;;;16.70;99.90;;;;;;4991450;28;20418;-71
2021/06/12 05:17:17;;;;;;;0.40;0.30;;;16.90;99.90;;;;;;4991883;28;20395;-71
2021/06/12 05:19:43;;;;;;;0.40;0.30;;;16.90;99.90;;;;;;4991118;28;20867;-71
2021/06/12 05:22:08;;;;;;;0.40;0.30;;;16.90;99.90;;;;;;4991705;28;20391;-71
2021/06/12 05:24:35;;;;;;;0.40;0.20;;;17.00;99.90;;;;;;4991107;28;20813;-71
2021/06/12 05:27:01;;;;;;;0.40;0.20;;;17.00;99.90;;;;;;4991804;28;20454;-71
2021/06/12 05:29:27;;;;;;;0.40;0.20;;;17.10;99.90;;;;;;4990825;28;20386;-71
2021/06/12 05:31:53;;;;;;;0.40;0.20;;;17.20;99.90;;;;;;4991515;28;20469;-71
2021/06/12 05:34:18;;;;;;;0.40;0.27;;;17.30;99.90;;;;;;4991730;28;20749;-71
2021/06/12 05:36:44;;;;;;;0.40;0.30;;;17.30;99.90;;;;;;4991030;28;20394;-71
2021/06/12 05:39:10;;;;;;;0.40;0.30;;;17.40;99.90;;;;;;4991598;28;20474;-70
2021/06/12 05:41:37;;;;;;;0.40;0.30;;;17.50;99.90;;;;;;4991016;28;20383;-71
2021/06/12 05:44:03;;;;;;;0.40;0.20;;;17.50;99.90;;;;;;4991766;28;20485;-71
2021/06/12 05:46:29;;;;;;;0.40;0.20;;;17.70;99.90;;;;;;4990891;28;20862;-71
2021/06/12 05:48:54;;;;;;;0.40;0.30;;;17.70;99.90;;;;;;4991551;28;20386;-71
2021/06/12 05:51:20;;;;;;;0.40;0.20;;;17.80;99.90;;;;;;4991372;28;20421;-71
2021/06/12 05:53:45;;;;;;;0.40;0.20;;;17.90;99.90;;;;;;4989628;28;20398;-72
2021/06/12 05:56:11;;;;;;;0.40;0.30;;;17.90;99.90;;;;;;4974397;28;20926;-72
2021/06/12 05:58:37;;;;;;;0.40;0.20;;;17.90;99.90;;;;;;4990809;28;20390;-72
2021/06/12 06:01:02;;;;;;;0.40;0.20;;;18.00;99.90;;;;;;4991256;28;20383;-72
2021/06/12 06:03:28;;;;;;;0.40;0.20;;;18.10;99.90;;;;;;4990544;28;20379;-72
2021/06/12 06:05:54;;;;;;;0.40;0.30;;;18.20;99.90;;;;;;4991144;28;20397;-72
2021/06/12 06:08:20;;;;;;;0.40;0.20;;;18.20;99.90;;;;;;4991282;28;20405;-71
2021/06/12 06:10:46;;;;;;;0.40;0.30;;;18.30;99.90;;;;;;4990632;28;20508;-71
2021/06/12 06:13:11;;;;;;;0.40;0.20;;;18.40;99.90;;;;;;4991031;28;20445;-71
2021/06/12 06:15:37;;;;;;;0.40;0.30;;;18.40;99.90;;;;;;4990206;28;20887;-72
2021/06/12 06:18:02;;;;;;;0.40;0.30;;;18.50;99.90;;;;;;4991030;28;20425;-72
2021/06/12 06:20:28;;;;;;;0.40;0.30;;;18.50;99.90;;;;;;4991319;28;20418;-72
2021/06/12 06:22:54;;;;;;;0.40;0.20;;;18.60;99.90;;;;;;4991252;28;20985;-71
2021/06/12 06:25:20;;;;;;;0.40;0.25;;;18.90;99.90;;;;;;4991226;28;20421;-71
2021/06/12 06:27:45;;;;;;;0.40;0.30;;;18.90;99.90;;;;;;4993090;28;20716;-71
2021/06/12 06:30:11;;;;;;;0.60;0.40;;;19.00;99.90;;;;;;4994478;28;20387;-71
2021/06/12 06:32:37;;;;;;;0.40;0.30;;;19.10;99.90;;;;;;4993913;28;20925;-71
2021/06/12 06:35:03;;;;;;;0.40;0.30;;;19.20;99.90;;;;;;4994652;28;20462;-72
2021/06/12 06:37:29;;;;;;;0.40;0.20;;;19.20;99.90;;;;;;4994155;28;20473;-72
2021/06/12 06:39:55;;;;;;;0.40;0.30;;;19.30;99.90;;;;;;4994595;28;20882;-72
2021/06/12 06:42:20;;;;;;;0.40;0.20;;;19.30;99.90;;;;;;4994667;28;20398;-71
2021/06/12 06:44:46;;;;;;;0.40;0.20;;;19.30;99.90;;;;;;4993898;28;20627;-72
2021/06/12 06:47:12;;;;;;;0.40;0.30;;;19.30;99.90;;;;;;4994315;28;20391;-72
2021/06/12 06:49:39;;;;;;;0.40;0.20;;;19.50;99.90;;;;;;4976100;28;20445;-72
2021/06/12 06:52:05;;;;;;;0.40;0.30;;;19.50;99.90;;;;;;4994045;28;20522;-72
2021/06/12 06:54:31;;;;;;;0.40;0.20;;;19.60;99.90;;;;;;4993631;28;20473;-73
2021/06/12 06:56:57;;;;;;;0.40;0.20;;;19.70;99.90;;;;;;4994360;28;20818;-72
2021/06/12 06:59:22;;;;;;;0.40;0.30;;;19.80;99.90;;;;;;4994197;28;20418;-72
2021/06/12 07:01:48;;;;;;;0.40;0.30;;;19.80;99.90;;;;;;4993306;28;20387;-71
2021/06/12 07:04:14;;;;;;;0.40;0.20;;;19.90;99.90;;;;;;4993913;28;20390;-71
2021/06/12 07:06:40;;;;;;;0.40;0.20;;;19.90;99.90;;;;;;4993351;28;20453;-71
2021/06/12 07:09:05;;;;;;;0.40;0.20;;;19.90;99.90;;;;;;4993811;28;20402;-71
2021/06/12 07:11:31;;;;;;;0.40;0.20;;;20.10;99.90;;;;;;4992789;28;20441;-71
2021/06/12 07:13:57;;;;;;;0.40;0.20;;;20.10;99.90;;;;;;4992962;28;20422;-71
2021/06/12 07:16:22;;;;;;;0.40;0.20;;;20.20;99.90;;;;;;4993277;28;20390;-71
2021/06/12 07:18:48;;;;;;;0.40;0.20;;;20.40;99.90;;;;;;4992751;28;20754;-71
2021/06/12 07:21:14;;;;;;;0.40;0.20;;;20.40;99.90;;;;;;4993748;28;20398;-72
2021/06/12 07:23:40;;;;;;;0.40;0.30;;;20.50;99.90;;;;;;4992710;28;20402;-72
2021/06/12 07:26:05;;;;;;;0.40;0.30;;;20.60;99.90;;;;;;4993794;28;20383;-72
2021/06/12 07:28:31;;;;;;;0.40;0.30;;;20.60;99.90;;;;;;4992874;28;20379;-73
2021/06/12 07:30:57;;;;;;;0.40;0.30;;;20.60;99.90;;;;;;4993389;28;20425;-71
2021/06/12 07:33:23;;;;;;;0.40;0.30;;;20.70;99.90;;;;;;4993475;28;20440;-72
2021/06/12 07:35:49;;;;;;;0.40;0.30;;;20.70;99.90;;;;;;4992923;28;20487;-72
2021/06/12 07:38:15;;;;;;;0.40;0.20;;;20.80;99.90;;;;;;4992816;28;20476;-72
2021/06/12 07:40:41;;;;;;;0.40;0.30;;;20.90;99.90;;;;;;4992918;28;20461;-72
2021/06/12 07:43:07;;;;;;;0.40;0.30;;;21.20;99.90;;;;;;4993204;28;20394;-71
2021/06/12 07:45:33;;;;;;;0.40;0.30;;;21.40;99.90;;;;;;4992666;28;20394;-72
2021/06/12 07:47:58;;;;;;;0.40;0.25;;;21.40;99.90;;;;;;4991866;28;20453;-72
2021/06/12 07:50:25;;;;;;;0.40;0.30;;;21.50;99.90;;;;;;4992770;28;20387;-72
2021/06/12 07:52:51;;;;;;;0.40;0.20;;;21.90;99.90;;;;;;4992384;28;20675;-72
2021/06/12 07:55:17;;;;;;;0.40;0.20;;;22.00;99.90;;;;;;4986885;28;20874;-73
2021/06/12 07:57:43;;;;;;;0.40;0.30;;;22.10;99.90;;;;;;4990865;28;20389;-72
2021/06/12 08:00:09;;;;;;;0.40;0.20;;;22.30;99.90;;;;;;4992664;28;20390;-72
2021/06/12 08:02:35;;;;;;;0.40;0.30;;;22.30;99.90;;;;;;4992076;28;20383;-73
2021/06/12 08:05:01;;;;;;;0.40;0.30;;;22.20;99.90;;;;;;4992257;28;20387;-72
2021/06/12 08:07:27;;;;;;;0.40;0.30;;;22.10;99.90;;;;;;4992021;28;20940;-73
2021/06/12 08:09:52;;;;;;;0.40;0.20;;;22.20;99.90;;;;;;4991703;28;20387;-72
2021/06/12 08:12:20;;;;;;;0.40;0.30;;;22.20;99.90;;;;;;4992510;28;20417;-73
2021/06/12 08:14:47;;;;;;;0.40;0.20;;;22.10;99.90;;;;;;4974098;28;20414;-72
2021/06/12 08:17:13;;;;;;;0.40;0.28;;;22.50;99.90;;;;;;4992209;28;20889;-72
2021/06/12 08:19:38;;;;;;;0.40;0.30;;;22.30;99.90;;;;;;4991480;28;20387;-72
2021/06/12 08:22:04;;;;;;;0.40;0.30;;;22.50;99.90;;;;;;4992165;28;20394;-73
2021/06/12 08:24:30;;;;;;;0.40;0.30;;;22.40;99.90;;;;;;4992530;28;20489;-71
2021/06/12 08:26:57;;;;;;;0.40;0.20;;;22.60;99.90;;;;;;4991647;28;20712;-72
2021/06/12 08:29:25;;;;;;;0.40;0.20;;;22.60;99.90;;;;;;4991805;28;20429;-71
2021/06/12 08:31:51;;;;;;;0.40;0.30;;;22.80;99.90;;;;;;4991471;28;20414;-72
2021/06/12 08:34:17;;;;;;;0.40;0.30;;;22.90;99.90;;;;;;4991997;28;20426;-71
2021/06/12 08:36:42;;;;;;;0.40;0.23;;;22.90;99.90;;;;;;4991423;28;20398;-73
2021/06/12 08:39:08;;;;;;;0.40;0.30;;;22.90;99.90;;;;;;4992044;28;20391;-73
2021/06/12 08:41:34;;;;;;;0.40;0.30;;;22.90;99.90;;;;;;4991340;28;20395;-73
2021/06/12 08:44:00;;;;;;;0.40;0.30;;;22.90;99.90;;;;;;4991510;28;20872;-72
2021/06/12 08:46:28;;;;;;;0.40;0.30;;;23.20;99.90;;;;;;4991300;28;20948;-71
2021/06/12 08:48:54;;;;;;;0.40;0.20;;;23.30;99.90;;;;;;4990019;28;20383;-72
2021/06/12 08:51:21;;;;;;;0.40;0.30;;;23.40;99.90;;;;;;4991480;28;20423;-72
2021/06/12 08:53:50;;;;;;;0.40;0.20;;;23.20;99.90;;;;;;4990451;28;20743;-72
2021/06/12 08:56:16;;;;;;;0.40;0.20;;;23.20;99.90;;;;;;4991554;28;20398;-72
2021/06/12 08:58:42;;;;;;;0.40;0.20;;;23.30;99.90;;;;;;4990283;28;20900;-72
2021/06/12 09:01:08;;;;;;;0.40;0.30;;;23.20;99.90;;;;;;4990994;28;20382;-70
2021/06/12 09:03:44;;;;;;;0.40;0.20;;;23.40;99.90;;;;;;4991262;28;20386;-74
2021/06/12 09:06:18;;;;;;;0.40;0.20;;;23.50;99.90;;;;;;4991391;28;20462;-73
2021/06/12 09:08:44;;;;;;;0.40;0.30;;;23.50;99.90;;;;;;4990470;28;20482;-72
2021/06/12 09:11:12;;;;;;;0.50;0.40;;;23.30;99.90;;;;;;4991019;28;20961;-71
2021/06/12 09:14:01;;;;;;;0.40;0.20;;;23.40;99.90;;;;;;4989960;28;20494;-74
2021/06/12 09:16:37;;;;;;;0.40;0.30;;;23.70;99.90;;;;;;4991308;28;20390;-72
2021/06/12 09:19:23;;;;;;;0.40;0.20;;;23.90;99.90;;;;;;4973860;28;20862;-73
2021/06/12 09:21:55;;;;;;;0.40;0.20;;;23.80;98.30;;;;;;4989150;28;20414;-71
2021/06/12 09:24:41;;;;;;;0.40;0.20;;;23.80;98.80;;;;;;4990929;28;20398;-72
2021/06/12 09:27:13;;;;;;;0.40;0.30;;;23.90;98.90;;;;;;4988467;28;20476;-72
2021/06/12 09:29:50;;;;;;;0.40;0.25;;;24.10;96.90;;;;;;4985595;28;20482;-72
2021/06/12 09:32:32;;;;;;;0.40;0.20;;;24.00;96.90;;;;;;4988705;28;20426;-71
2021/06/12 09:35:08;;;;;;;0.40;0.30;;;24.20;97.00;;;;;;4985237;28;20815;-72
2021/06/12 09:37:35;;;;;;;0.40;0.20;;;24.10;97.90;;;;;;4989252;28;20433;-75
2021/06/12 09:40:06;;;;;;;0.40;0.20;;;24.10;96.90;;;;;;4984957;28;20402;-73
2021/06/12 09:42:55;;;;;;;0.40;0.20;;;24.00;97.00;;;;;;4987587;28;20954;-72
2021/06/12 09:45:36;;;;;;;0.40;0.20;;;24.10;96.30;;;;;;4987417;28;20512;-72
2021/06/12 09:48:17;;;;;;;0.40;0.30;;;24.30;96.10;;;;;;4973773;28;20473;-73
2021/06/12 09:50:45;;;;;;;0.40;0.20;;;24.40;95.50;;;;;;4990237;28;20422;-73
2021/06/12 09:53:22;;;;;;;0.40;0.20;;;24.40;95.20;;;;;;4991276;28;20386;-73
2021/06/12 09:55:48;;;;;;;0.40;0.30;;;24.50;95.30;;;;;;4990093;28;20394;-72
2021/06/12 09:58:15;;;;;;;0.40;0.20;;;24.60;93.80;;;;;;4989791;28;20403;-72
2021/06/12 10:00:42;;;;;;;0.40;0.20;;;24.70;93.80;;;;;;4991680;28;20779;-73
2021/06/12 10:03:31;;;;;;;0.40;0.30;;;24.50;94.50;;;;;;4994887;28;20398;-75
2021/06/12 10:06:19;;;;;;;0.40;0.20;;;24.60;94.50;;;;;;4994120;28;20738;-74
2021/06/12 10:08:49;;;;;;;0.60;0.40;;;24.60;94.70;;;;;;4994156;28;20477;-74
2021/06/12 10:11:16;;;;;;;0.40;0.20;;;24.80;93.80;;;;;;4994712;28;20517;-73
2021/06/12 10:13:45;;;;;;;0.40;0.30;;;24.80;94.10;;;;;;4993651;28;20425;-73
2021/06/12 10:16:12;;;;;;;0.40;0.30;;;24.90;94.40;;;;;;4994557;28;20795;-73
2021/06/12 10:18:42;;;;;;;0.40;0.20;;;25.00;94.80;;;;;;4991088;28;20745;-74
2021/06/12 10:21:13;;;;;;;0.40;0.30;;;25.10;94.10;;;;;;4994365;28;20434;-73
2021/06/12 10:23:40;;;;;;;0.40;0.30;;;25.20;95.00;;;;;;4993099;28;20448;-74
2021/06/12 10:26:07;;;;;;;0.40;0.30;;;25.10;94.00;;;;;;4982090;28;20451;-73
2021/06/12 10:28:33;;;;;;;0.40;0.20;;;25.20;93.60;;;;;;4975503;28;20435;-73
2021/06/12 10:31:26;;;;;;;0.40;0.30;;;25.30;93.10;;;;;;4974569;28;20511;-74
2021/06/12 10:33:55;;;;;;;0.40;0.30;;;25.40;94.30;;;;;;4974220;28;20404;-74
2021/06/12 10:36:24;;;;;;;0.40;0.30;;;25.40;92.40;;;;;;4975004;28;20443;-74
2021/06/12 10:38:51;;;;;;;0.40;0.30;;;25.50;92.40;;;;;;4984160;28;20406;-74
2021/06/12 10:41:26;;;;;;;0.40;0.30;;;25.60;92.20;;;;;;4976007;28;20491;-75
2021/06/12 10:43:54;;;;;;;0.40;0.22;;;25.60;91.90;;;;;;4973457;28;20499;-74
2021/06/12 10:46:26;;;;;;;0.40;0.30;;;25.60;92.70;;;;;;4972178;28;20411;-75
2021/06/12 10:49:18;;;;;;;0.40;0.30;;;25.60;92.00;;;;;;4969738;28;20882;-75
2021/06/12 10:51:45;;;;;;;0.40;0.20;;;25.50;92.50;;;;;;4966652;28;20435;-75
2021/06/12 10:54:22;;;;;;;0.40;0.20;;;25.50;91.60;;;;;;4971592;28;20392;-73
2021/06/12 10:56:51;;;;;;;0.40;0.20;;;25.60;92.40;;;;;;4971757;28;20393;-75
2021/06/12 10:59:42;;;;;;;0.40;0.30;;;25.80;92.00;;;;;;4970953;28;20431;-74
2021/06/12 11:02:36;;;;;;;0.40;0.20;;;26.20;91.00;;;;;;4960862;28;20935;-76
2021/06/12 11:05:05;;;;;;;0.40;0.30;;;26.00;91.30;;;;;;4972145;28;21812;-76
2021/06/12 11:07:41;;;;;;;0.40;0.20;;;26.10;91.10;;;;;;4994007;28;20400;-78
2021/06/12 11:10:13;;;;;;;0.40;0.20;;;26.40;89.40;;;;;;4969330;28;20901;-77
2021/06/12 11:12:49;;;;;;;0.40;0.20;;;26.50;84.30;;;;;;4970903;28;20467;-75
2021/06/12 11:15:21;;;;;;;0.40;0.20;;;26.40;84.20;;;;;;4966620;28;20426;-75
2021/06/12 11:18:10;;;;;;;0.40;0.30;;;26.50;82.10;;;;;;4970626;28;20399;-76
2021/06/12 11:20:41;;;;;;;0.40;0.20;;;26.40;84.20;;;;;;4971326;28;20388;-75
2021/06/12 11:23:07;;;;;;;0.40;0.30;;;26.30;83.70;;;;;;4971071;28;20400;-76
2021/06/12 11:25:33;;;;;;;0.40;0.20;;;26.20;84.20;;;;;;4971540;28;21214;-76
2021/06/12 11:28:22;;;;;;;0.40;0.30;;;26.00;85.80;;;;;;4968620;28;20408;-75
2021/06/12 11:30:53;;;;;;;0.40;0.30;;;26.20;82.50;;;;;;4971343;28;20427;-74
2021/06/12 11:33:19;;;;;;;0.40;0.20;;;26.50;83.50;;;;;;4971437;28;20400;-76
2021/06/12 11:35:51;;;;;;;0.40;0.30;;;26.70;84.00;;;;;;4968944;28;20451;-74
2021/06/12 11:38:21;;;;;;;0.40;0.30;;;26.90;83.00;;;;;;4968520;28;20476;-75
2021/06/12 11:41:05;;;;;;;0.40;0.20;;;27.00;83.40;;;;;;4970043;28;20398;-75
2021/06/12 11:43:51;;;;;;;0.40;0.30;;;27.20;79.30;;;;;;4960499;28;20456;-75
2021/06/12 11:46:30;;;;;;;0.40;0.30;;;27.60;79.10;;;;;;4971327;28;20452;-75
2021/06/12 11:48:57;;;;;;;0.40;0.30;;;27.50;77.20;;;;;;4969355;28;20807;-76
2021/06/12 11:51:31;;;;;;;0.40;0.20;;;27.60;76.90;;;;;;4971081;28;20423;-75
2021/06/12 11:54:13;;;;;;;0.40;0.20;;;27.90;77.90;;;;;;4970955;28;20406;-75
2021/06/12 11:56:50;;;;;;;0.40;0.20;;;28.50;73.90;;;;;;4971514;28;20390;-76
2021/06/12 11:59:20;;;;;;;0.80;0.40;;;28.50;73.90;;;;;;4969246;28;20728;-76
2021/06/12 12:01:47;;;;;;;0.50;0.40;;;28.20;74.30;;;;;;4969558;28;20416;-75
2021/06/12 12:04:21;;;;;;;0.40;0.20;;;28.60;74.70;;;;;;4969966;28;20528;-74
2021/06/12 12:06:49;;;;;;;0.40;0.20;;;28.70;74.60;;;;;;4970415;28;20395;-74
2021/06/12 12:09:22;;;;;;;0.40;0.20;;;28.80;73.20;;;;;;4969642;28;20401;-74
2021/06/12 12:11:54;;;;;;;0.40;0.20;;;28.90;70.30;;;;;;4971417;28;20426;-75
2021/06/12 12:14:27;;;;;;;0.40;0.30;;;28.40;73.20;;;;;;4970993;28;20507;-75
2021/06/12 12:16:53;;;;;;;0.40;0.30;;;28.60;72.30;;;;;;4970009;28;20391;-75
2021/06/12 12:19:19;;;;;;;0.40;0.30;;;28.80;71.20;;;;;;4969343;28;20475;-74
2021/06/12 12:21:47;;;;;;;0.40;0.20;;;29.10;70.20;;;;;;4970182;28;20492;-74
2021/06/12 12:24:14;;;;;;;0.40;0.20;;;29.40;71.00;;;;;;4970702;28;20402;-74
2021/06/12 12:26:55;;;;;;;0.40;0.30;;;29.10;71.40;;;;;;4969954;28;20409;-75
2021/06/12 12:29:24;;;;;;;0.40;0.20;;;29.20;70.70;;;;;;4968106;28;20472;-76
2021/06/12 12:31:50;;;;;;;0.40;0.20;;;29.30;71.30;;;;;;4969817;28;20969;-75
2021/06/12 12:34:32;;;;;;;0.40;0.20;;;29.60;70.50;;;;;;4970329;28;20892;-74
2021/06/12 12:36:58;;;;;;;0.40;0.20;;;29.50;72.20;;;;;;4970930;28;20734;-73
2021/06/12 12:39:24;;;;;;;0.40;0.30;;;29.50;69.00;;;;;;4968769;28;20758;-75
2021/06/12 12:41:55;;;;;;;0.40;0.20;;;29.30;71.60;;;;;;4969811;28;20922;-74
2021/06/12 12:44:22;;;;;;;0.40;0.20;;;29.30;71.50;;;;;;4970446;28;20418;-75
2021/06/12 12:46:50;;;;;;;0.40;0.20;;;29.00;73.40;;;;;;4970382;28;20831;-74
2021/06/12 12:49:24;;;;;;;0.40;0.30;;;29.30;70.90;;;;;;4968396;28;20500;-75
2021/06/12 12:51:57;;;;;;;0.40;0.20;;;28.70;71.40;;;;;;4970257;28;20467;-76
2021/06/12 12:54:25;;;;;;;0.40;0.20;;;28.50;75.10;;;;;;4969900;28;20403;-76
2021/06/12 12:56:56;;;;;;;0.40;0.30;;;28.50;72.00;;;;;;4969775;28;20392;-77